Time;durP1;ratioP1;P1;durP2;ratioP2;P2;SDS_P1;SDS_P2;PMS_P1;PMS_P2;Temp;Humidity;BMP_temperature;BMP_pressure;BME280_temperature;BME280_humidity;BME280_pressure;Samples;Min_cycle;Max_cycle;Signal;HPM_P1;HPM_P2
2023/12/20 00:02:20;;;;;;;;;;;;;;;;;;5025395;28;20365;-57
2023/12/20 00:04:46;;;;;;;;;;;;;;;;;;5029296;28;20044;-57
2023/12/20 00:07:12;;;;;;;;;;;;;;;;;;5034840;28;20012;-57
2023/12/20 00:09:38;;;;;;;;;;;;;;;;;;5027572;28;20486;-57
2023/12/20 00:12:04;;;;;;;;;;;;;;;;;;5026550;28;20007;-57
2023/12/20 00:14:30;;;;;;;;;;;;;;;;;;5035076;28;19985;-57
2023/12/20 00:16:56;;;;;;;;;;;;;;;;;;5024119;28;19972;-57
2023/12/20 00:19:22;;;;;;;;;;;;;;;;;;5031391;28;19966;-56
2023/12/20 00:21:48;;;;;;;;;;;;;;;;;;5030594;28;19968;-57
2023/12/20 00:24:14;;;;;;;;;;;;;;;;;;5031444;28;20504;-56
2023/12/20 00:26:40;;;;;;;;;;;;;;;;;;5030816;28;19940;-57
2023/12/20 00:29:06;;;;;;;;;;;;;;;;;;5031377;28;20307;-57
2023/12/20 00:31:32;;;;;;;;;;;;;;;;;;5025200;28;19976;-56
2023/12/20 00:33:58;;;;;;;;;;;;;;;;;;5032570;28;19990;-56
2023/12/20 00:36:24;;;;;;;;;;;;;;;;;;5026713;28;19959;-57
2023/12/20 00:38:51;;;;;;;;;;;;;;;;;;5015630;28;19959;-57
2023/12/20 00:41:17;;;;;;;;;;;;;;;;;;5031430;28;19994;-57
2023/12/20 00:43:44;;;;;;;;;;;;;;;;;;5031269;28;20380;-59
2023/12/20 00:46:10;;;;;;;;;;;;;;;;;;5030664;28;19999;-56
2023/12/20 00:48:36;;;;;;;;;;;;;;;;;;5032245;28;20043;-57
2023/12/20 00:51:02;;;;;;;;;;;;;;;;;;5032488;28;20368;-57
2023/12/20 00:53:28;;;;;;;;;;;;;;;;;;5026718;28;19988;-56
2023/12/20 00:55:54;;;;;;;;;;;;;;;;;;5032388;28;20025;-57
2023/12/20 00:58:20;;;;;;;;;;;;;;;;;;5030745;28;20406;-56
2023/12/20 01:00:46;;;;;;;;;;;;;;;;;;5029330;28;20021;-57
2023/12/20 01:03:12;;;;;;;;;;;;;;;;;;5029091;28;19987;-57
2023/12/20 01:05:38;;;;;;;;;;;;;;;;;;5030460;28;19913;-57
2023/12/20 01:08:04;;;;;;;;;;;;;;;;;;5029617;28;19964;-55
2023/12/20 01:10:30;;;;;;;;;;;;;;;;;;5030265;28;19976;-54
2023/12/20 01:12:56;;;;;;;;;;;;;;;;;;5029882;28;19917;-54
2023/12/20 01:15:22;;;;;;;;;;;;;;;;;;5029559;28;19964;-54
2023/12/20 01:17:49;;;;;;;;;;;;;;;;;;5027934;28;20211;-54
2023/12/20 01:20:16;;;;;;;;;;;;;;;;;;5026904;28;19941;-55
2023/12/20 01:22:42;;;;;;;;;;;;;;;;;;5031317;28;20444;-54
2023/12/20 01:25:08;;;;;;;;;;;;;;;;;;5015903;28;20366;-55
2023/12/20 01:27:34;;;;;;;;;;;;;;;;;;5029021;28;19948;-55
2023/12/20 01:30:00;;;;;;;;;;;;;;;;;;5044114;28;19955;-54
2023/12/20 01:32:26;;;;;;;;;;;;;;;;;;5028624;28;19986;-54
2023/12/20 01:34:52;;;;;;;;;;;;;;;;;;5029048;28;20683;-54
2023/12/20 01:37:18;;;;;;;;;;;;;;;;;;5025184;28;20344;-54
2023/12/20 01:39:44;;;;;;;;;;;;;;;;;;5031083;28;19923;-55
2023/12/20 01:42:10;;;;;;;;;;;;;;;;;;5029697;28;19939;-54
2023/12/20 01:44:36;;;;;;;;;;;;;;;;;;5029518;28;19967;-54
2023/12/20 01:47:02;;;;;;;;;;;;;;;;;;5027788;28;19949;-55
2023/12/20 01:49:28;;;;;;;;;;;;;;;;;;5030523;28;20300;-55
2023/12/20 01:51:54;;;;;;;;;;;;;;;;;;5034014;28;19956;-55
2023/12/20 01:54:20;;;;;;;;;;;;;;;;;;5028697;28;20004;-55
2023/12/20 01:56:46;;;;;;;;;;;;;;;;;;5027563;28;20435;-56
2023/12/20 01:59:12;;;;;;;;;;;;;;;;;;5029285;28;19952;-54
2023/12/20 02:01:38;;;;;;;;;;;;;;;;;;5025221;28;20509;-55
2023/12/20 02:04:03;;;;;;;;;;;;;;;;;;5029885;28;20317;-54
2023/12/20 02:06:30;;;;;;;;;;;;;;;;;;5040070;28;19949;-56
2023/12/20 02:08:56;;;;;;;;;;;;;;;;;;5025384;28;20058;-55
2023/12/20 02:11:22;;;;;;;;;;;;;;;;;;5028285;28;19921;-55
2023/12/20 02:13:48;;;;;;;;;;;;;;;;;;5028654;28;19959;-54
2023/12/20 02:16:14;;;;;;;;;;;;;;;;;;5026760;28;20036;-54
2023/12/20 02:18:40;;;;;;;;;;;;;;;;;;5027586;28;19964;-56
2023/12/20 02:21:06;;;;;;;;;;;;;;;;;;5026531;28;19928;-56
2023/12/20 02:23:32;;;;;;;;;;;;;;;;;;5026156;28;19960;-56
2023/12/20 02:25:58;;;;;;;;;;;;;;;;;;5031295;28;19917;-56
2023/12/20 02:28:24;;;;;;;;;;;;;;;;;;5014529;28;20032;-55
2023/12/20 02:30:50;;;;;;;;;;;;;;;;;;5027514;28;19944;-55
2023/12/20 02:33:15;;;;;;;;;;;;;;;;;;5025740;28;20009;-55
2023/12/20 02:35:41;;;;;;;;;;;;;;;;;;5028619;28;19979;-54
2023/12/20 02:38:07;;;;;;;;;;;;;;;;;;5032488;28;19963;-54
2023/12/20 02:40:33;;;;;;;;;;;;;;;;;;5028840;28;19917;-55
2023/12/20 02:42:59;;;;;;;;;;;;;;;;;;5027712;28;19913;-55
2023/12/20 02:45:25;;;;;;;;;;;;;;;;;;5032531;28;19948;-55
2023/12/20 02:47:51;;;;;;;;;;;;;;;;;;5021425;28;20554;-55
2023/12/20 02:50:17;;;;;;;;;;;;;;;;;;5036122;28;20004;-55
2023/12/20 02:52:43;;;;;;;;;;;;;;;;;;5022540;28;19968;-55
2023/12/20 02:55:09;;;;;;;;;;;;;;;;;;5028949;28;19963;-54
2023/12/20 02:57:36;;;;;;;;;;;;;;;;;;5026881;28;19963;-55
2023/12/20 03:00:02;;;;;;;;;;;;;;;;;;5023389;28;20325;-55
2023/12/20 03:02:28;;;;;;;;;;;;;;;;;;5026959;28;20644;-55
2023/12/20 03:04:54;;;;;;;;;;;;;;;;;;5028603;28;19927;-55
2023/12/20 03:07:20;;;;;;;;;;;;;;;;;;5029714;28;19925;-55
2023/12/20 03:09:46;;;;;;;;;;;;;;;;;;5027050;28;20061;-55
2023/12/20 03:12:12;;;;;;;;;;;;;;;;;;5024212;28;19995;-54
2023/12/20 03:14:38;;;;;;;;;;;;;;;;;;5035759;28;20384;-54
2023/12/20 03:17:04;;;;;;;;;;;;;;;;;;5032420;28;20391;-55
2023/12/20 03:19:30;;;;;;;;;;;;;;;;;;5035377;28;19949;-55
2023/12/20 03:21:56;;;;;;;;;;;;;;;;;;5029901;28;19937;-55
2023/12/20 03:24:22;;;;;;;;;;;;;;;;;;5032879;28;19917;-55
2023/12/20 03:26:48;;;;;;;;;;;;;;;;;;5029654;28;20345;-55
2023/12/20 03:29:14;;;;;;;;;;;;;;;;;;5035020;28;20016;-52
2023/12/20 03:31:40;;;;;;;;;;;;;;;;;;5030799;28;19933;-51
2023/12/20 03:34:06;;;;;;;;;;;;;;;;;;5026990;28;20355;-52
2023/12/20 03:36:32;;;;;;;;;;;;;;;;;;5025032;28;20685;-52
2023/12/20 03:38:58;;;;;;;;;;;;;;;;;;5032280;28;20344;-52
2023/12/20 03:41:24;;;;;;;;;;;;;;;;;;5027788;28;19944;-52
2023/12/20 03:43:50;;;;;;;;;;;;;;;;;;5027165;28;19963;-53
2023/12/20 03:46:16;;;;;;;;;;;;;;;;;;5030164;28;20007;-52
2023/12/20 03:48:42;;;;;;;;;;;;;;;;;;5027321;28;19917;-54
2023/12/20 03:51:08;;;;;;;;;;;;;;;;;;5025297;28;20066;-53
2023/12/20 03:53:34;;;;;;;;;;;;;;;;;;5030971;28;19948;-52
2023/12/20 03:56:00;;;;;;;;;;;;;;;;;;5032537;28;19952;-52
2023/12/20 03:58:26;;;;;;;;;;;;;;;;;;5032423;28;19982;-52
2023/12/20 04:00:52;;;;;;;;;;;;;;;;;;5032149;28;19956;-52
2023/12/20 04:03:17;;;;;;;;;;;;;;;;;;5042632;28;19916;-51
2023/12/20 04:05:43;;;;;;;;;;;;;;;;;;5032981;28;19960;-53
2023/12/20 04:08:09;;;;;;;;;;;;;;;;;;5030734;28;20418;-55
2023/12/20 04:10:37;;;;;;;;;;;;;;;;;;5031520;28;19960;-53
2023/12/20 04:13:03;;;;;;;;;;;;;;;;;;5029929;28;20376;-53
2023/12/20 04:15:29;;;;;;;;;;;;;;;;;;5029411;28;19962;-52
2023/12/20 04:17:55;;;;;;;;;;;;;;;;;;5027629;28;19963;-53
2023/12/20 04:20:20;;;;;;;;;;;;;;;;;;5026570;28;19956;-52
2023/12/20 04:22:46;;;;;;;;;;;;;;;;;;5029121;28;19968;-53
2023/12/20 04:25:12;;;;;;;;;;;;;;;;;;5032279;28;20028;-53
2023/12/20 04:27:38;;;;;;;;;;;;;;;;;;5029452;28;20375;-53
2023/12/20 04:30:04;;;;;;;;;;;;;;;;;;5032016;28;20428;-56
2023/12/20 04:32:31;;;;;;;;;;;;;;;;;;5029998;28;20396;-52
2023/12/20 04:34:57;;;;;;;;;;;;;;;;;;5029923;28;19919;-51
2023/12/20 04:37:23;;;;;;;;;;;;;;;;;;5028995;28;20325;-55
2023/12/20 04:39:50;;;;;;;;;;;;;;;;;;5026656;28;20387;-52
2023/12/20 04:42:15;;;;;;;;;;;;;;;;;;5031684;28;20012;-52
2023/12/20 04:44:43;;;;;;;;;;;;;;;;;;5031003;28;20071;-52
2023/12/20 04:47:09;;;;;;;;;;;;;;;;;;5030215;28;20384;-55
2023/12/20 04:49:35;;;;;;;;;;;;;;;;;;5026868;28;19968;-54
2023/12/20 04:52:01;;;;;;;;;;;;;;;;;;5030414;28;19963;-51
2023/12/20 04:54:27;;;;;;;;;;;;;;;;;;5031113;28;19956;-52
2023/12/20 04:56:53;;;;;;;;;;;;;;;;;;5031286;28;19948;-51
2023/12/20 04:59:19;;;;;;;;;;;;;;;;;;5033542;28;20384;-52
2023/12/20 05:01:45;;;;;;;;;;;;;;;;;;5030036;28;19975;-53
2023/12/20 05:04:11;;;;;;;;;;;;;;;;;;5023516;28;19921;-53
2023/12/20 05:06:37;;;;;;;;;;;;;;;;;;5027289;28;20287;-54
2023/12/20 05:09:03;;;;;;;;;;;;;;;;;;5036350;28;19967;-51
2023/12/20 05:11:29;;;;;;;;;;;;;;;;;;5035564;28;20407;-51
2023/12/20 05:13:55;;;;;;;;;;;;;;;;;;5029921;28;19986;-52
2023/12/20 05:16:21;;;;;;;;;;;;;;;;;;5030819;28;20586;-52
2023/12/20 05:18:47;;;;;;;;;;;;;;;;;;5029155;28;19955;-52
2023/12/20 05:21:13;;;;;;;;;;;;;;;;;;5030409;28;19968;-51
2023/12/20 05:23:39;;;;;;;;;;;;;;;;;;5027447;28;19999;-52
2023/12/20 05:26:05;;;;;;;;;;;;;;;;;;5030393;28;19964;-53
2023/12/20 05:28:30;;;;;;;;;;;;;;;;;;5028868;28;19960;-53
2023/12/20 05:30:56;;;;;;;;;;;;;;;;;;5022735;28;20036;-52
2023/12/20 05:33:22;;;;;;;;;;;;;;;;;;5029358;28;20013;-55
2023/12/20 05:35:48;;;;;;;;;;;;;;;;;;5029429;28;19960;-51
2023/12/20 05:38:14;;;;;;;;;;;;;;;;;;5030265;28;19964;-52
2023/12/20 05:40:40;;;;;;;;;;;;;;;;;;5034655;28;19963;-51
2023/12/20 05:43:06;;;;;;;;;;;;;;;;;;5032083;28;19952;-53
2023/12/20 05:45:32;;;;;;;;;;;;;;;;;;5042136;28;19960;-54
2023/12/20 05:47:58;;;;;;;;;;;;;;;;;;5029563;28;20777;-54
2023/12/20 05:50:25;;;;;;;;;;;;;;;;;;5027874;28;19924;-55
2023/12/20 05:52:51;;;;;;;;;;;;;;;;;;5030168;28;19924;-55
2023/12/20 05:55:16;;;;;;;;;;;;;;;;;;5030134;28;19917;-55
2023/12/20 05:57:43;;;;;;;;;;;;;;;;;;5025155;28;19964;-55
2023/12/20 06:00:09;;;;;;;;;;;;;;;;;;5026669;28;19914;-55
2023/12/20 06:02:36;;;;;;;;;;;;;;;;;;5027331;28;19924;-55
2023/12/20 06:05:02;;;;;;;;;;;;;;;;;;5033816;28;19941;-55
2023/12/20 06:07:29;;;;;;;;;;;;;;;;;;5029262;28;19956;-55
2023/12/20 06:09:55;;;;;;;;;;;;;;;;;;5031227;28;19917;-54
2023/12/20 06:12:21;;;;;;;;;;;;;;;;;;5026156;28;19925;-55
2023/12/20 06:14:47;;;;;;;;;;;;;;;;;;5024575;28;20027;-54
2023/12/20 06:17:13;;;;;;;;;;;;;;;;;;5023184;28;19925;-55
2023/12/20 06:19:39;;;;;;;;;;;;;;;;;;5025705;28;19975;-55
2023/12/20 06:22:05;;;;;;;;;;;;;;;;;;5032858;28;20544;-54
2023/12/20 06:24:33;;;;;;;;;;;;;;;;;;5044512;28;19948;-55
2023/12/20 06:26:59;;;;;;;;;;;;;;;;;;5010170;28;19920;-55
2023/12/20 06:29:25;;;;;;;;;;;;;;;;;;5036020;28;19912;-54
2023/12/20 06:31:51;;;;;;;;;;;;;;;;;;5033609;28;19979;-54
2023/12/20 06:34:17;;;;;;;;;;;;;;;;;;5029238;28;19967;-55
2023/12/20 06:36:43;;;;;;;;;;;;;;;;;;5026246;28;19963;-55
2023/12/20 06:39:10;;;;;;;;;;;;;;;;;;5016207;28;19913;-55
2023/12/20 06:41:38;;;;;;;;;;;;;;;;;;5035943;28;19916;-54
2023/12/20 06:44:04;;;;;;;;;;;;;;;;;;5030852;28;21358;-55
2023/12/20 06:46:30;;;;;;;;;;;;;;;;;;5040634;28;20392;-54
2023/12/20 06:48:56;;;;;;;;;;;;;;;;;;5023078;28;19917;-55
2023/12/20 06:51:25;;;;;;;;;;;;;;;;;;5023093;28;20008;-54
2023/12/20 06:53:51;;;;;;;;;;;;;;;;;;5033110;28;20446;-55
2023/12/20 06:56:17;;;;;;;;;;;;;;;;;;5030158;28;19967;-55
2023/12/20 06:58:43;;;;;;;;;;;;;;;;;;5027478;28;19921;-56
2023/12/20 07:01:09;;;;;;;;;;;;;;;;;;5024275;28;19917;-56
2023/12/20 07:03:34;;;;;;;;;;;;;;;;;;5029636;28;19956;-56
2023/12/20 07:06:00;;;;;;;;;;;;;;;;;;5028381;28;19944;-56
2023/12/20 07:08:27;;;;;;;;;;;;;;;;;;5026684;28;20090;-56
2023/12/20 07:10:54;;;;;;;;;;;;;;;;;;5028966;28;20386;-57
2023/12/20 07:13:20;;;;;;;;;;;;;;;;;;5028534;28;19917;-56
2023/12/20 07:15:46;;;;;;;;;;;;;;;;;;5027821;28;19925;-56
2023/12/20 07:18:12;;;;;;;;;;;;;;;;;;5027884;28;20349;-56
2023/12/20 07:20:38;;;;;;;;;;;;;;;;;;5039355;28;20365;-56
2023/12/20 07:23:03;;;;;;;;;;;;;;;;;;5028287;28;20007;-56
2023/12/20 07:25:32;;;;;;;;;;;;;;;;;;5022384;28;19967;-56
2023/12/20 07:27:58;;;;;;;;;;;;;;;;;;5025176;28;19921;-56
2023/12/20 07:30:24;;;;;;;;;;;;;;;;;;5033523;28;19944;-56
2023/12/20 07:32:50;;;;;;;;;;;;;;;;;;5026411;28;19957;-56
2023/12/20 07:35:16;;;;;;;;;;;;;;;;;;5026891;28;19960;-56
2023/12/20 07:37:41;;;;;;;;;;;;;;;;;;5030656;28;19921;-56
2023/12/20 07:40:07;;;;;;;;;;;;;;;;;;5040254;28;20083;-56
2023/12/20 07:42:33;;;;;;;;;;;;;;;;;;5030190;28;19968;-57
2023/12/20 07:44:59;;;;;;;;;;;;;;;;;;5031723;28;19952;-56
2023/12/20 07:47:25;;;;;;;;;;;;;;;;;;5032284;28;20408;-56
2023/12/20 07:49:51;;;;;;;;;;;;;;;;;;5030343;28;20378;-57
2023/12/20 07:52:18;;;;;;;;;;;;;;;;;;5029124;28;19921;-56
2023/12/20 07:54:44;;;;;;;;;;;;;;;;;;5035544;28;19924;-56
2023/12/20 07:57:10;;;;;;;;;;;;;;;;;;5039945;28;20080;-56
2023/12/20 07:59:36;;;;;;;;;;;;;;;;;;5025758;28;20019;-57
2023/12/20 08:02:02;;;;;;;;;;;;;;;;;;5032861;28;20396;-56
2023/12/20 08:04:28;;;;;;;;;;;;;;;;;;5043004;28;20722;-56
2023/12/20 08:06:54;;;;;;;;;;;;;;;;;;5028463;28;20421;-57
2023/12/20 08:09:20;;;;;;;;;;;;;;;;;;5029746;28;19952;-55
2023/12/20 08:11:46;;;;;;;;;;;;;;;;;;5025323;28;20010;-55
2023/12/20 08:14:12;;;;;;;;;;;;;;;;;;5027444;28;20364;-55
2023/12/20 08:16:37;;;;;;;;;;;;;;;;;;5031001;28;19976;-55
2023/12/20 08:19:03;;;;;;;;;;;;;;;;;;5034655;28;19960;-55
2023/12/20 08:21:29;;;;;;;;;;;;;;;;;;5030907;28;19956;-55
2023/12/20 08:23:55;;;;;;;;;;;;;;;;;;5026497;28;19980;-55
2023/12/20 08:26:24;;;;;;;;;;;;;;;;;;5042572;28;19971;-55
2023/12/20 08:28:50;;;;;;;;;;;;;;;;;;5027718;28;19919;-55
2023/12/20 08:31:16;;;;;;;;;;;;;;;;;;5038183;28;20405;-55
2023/12/20 08:33:42;;;;;;;;;;;;;;;;;;5040831;28;19969;-55
2023/12/20 08:36:08;;;;;;;;;;;;;;;;;;5036433;28;19913;-56
2023/12/20 08:38:34;;;;;;;;;;;;;;;;;;5029932;28;20415;-55
2023/12/20 08:41:01;;;;;;;;;;;;;;;;;;5037101;28;19921;-56
2023/12/20 08:43:27;;;;;;;;;;;;;;;;;;5038412;28;19913;-56
2023/12/20 08:45:53;;;;;;;;;;;;;;;;;;5040348;28;19972;-56
2023/12/20 08:48:18;;;;;;;;;;;;;;;;;;5032524;28;19984;-56
2023/12/20 08:50:44;;;;;;;;;;;;;;;;;;5037172;28;20028;-56
2023/12/20 08:53:10;;;;;;;;;;;;;;;;;;5033102;28;20360;-55
2023/12/20 08:55:36;;;;;;;;;;;;;;;;;;5033437;28;19919;-55
2023/12/20 08:58:02;;;;;;;;;;;;;;;;;;5031375;28;19971;-55
2023/12/20 09:00:29;;;;;;;;;;;;;;;;;;5034882;28;20006;-55
2023/12/20 09:02:55;;;;;;;;;;;;;;;;;;5036275;28;19920;-55
2023/12/20 09:05:22;;;;;;;;;;;;;;;;;;5030463;28;19956;-55
2023/12/20 09:07:48;;;;;;;;;;;;;;;;;;5031024;28;20011;-56
2023/12/20 09:10:14;;;;;;;;;;;;;;;;;;5032721;28;20015;-55
2023/12/20 09:12:40;;;;;;;;;;;;;;;;;;5037044;28;20014;-56
2023/12/20 09:15:06;;;;;;;;;;;;;;;;;;5031485;28;19964;-55
2023/12/20 09:17:32;;;;;;;;;;;;;;;;;;5034212;28;19971;-55
2023/12/20 09:19:59;;;;;;;;;;;;;;;;;;5040536;28;19960;-57
2023/12/20 09:22:25;;;;;;;;;;;;;;;;;;5036866;28;19970;-57
2023/12/20 09:24:51;;;;;;;;;;;;;;;;;;5027973;28;19914;-57
2023/12/20 09:27:17;;;;;;;;;;;;;;;;;;5035936;28;20408;-58
2023/12/20 09:29:43;;;;;;;;;;;;;;;;;;5035439;28;19967;-57
2023/12/20 09:32:09;;;;;;;;;;;;;;;;;;5029621;28;19924;-57
2023/12/20 09:34:36;;;;;;;;;;;;;;;;;;5031666;28;19952;-57
2023/12/20 09:37:03;;;;;;;;;;;;;;;;;;5034647;28;19917;-57
2023/12/20 09:39:31;;;;;;;;;;;;;;;;;;5029976;28;19924;-57
2023/12/20 09:41:57;;;;;;;;;;;;;;;;;;5033158;28;20384;-57
2023/12/20 09:44:23;;;;;;;;;;;;;;;;;;5043417;28;19959;-57
2023/12/20 09:46:49;;;;;;;;;;;;;;;;;;5032589;28;19948;-57
2023/12/20 09:49:15;;;;;;;;;;;;;;;;;;5030199;28;20348;-58
2023/12/20 09:51:41;;;;;;;;;;;;;;;;;;5027328;28;20629;-57
2023/12/20 09:54:07;;;;;;;;;;;;;;;;;;5041410;28;20010;-57
2023/12/20 09:56:33;;;;;;;;;;;;;;;;;;5035579;28;19971;-57
2023/12/20 09:58:59;;;;;;;;;;;;;;;;;;5044322;28;19956;-56
2023/12/20 10:01:25;;;;;;;;;;;;;;;;;;5025660;28;19925;-57
2023/12/20 10:03:51;;;;;;;;;;;;;;;;;;5024062;28;19949;-56
2023/12/20 10:06:17;;;;;;;;;;;;;;;;;;5030324;28;19960;-57
2023/12/20 10:08:43;;;;;;;;;;;;;;;;;;5038227;28;20387;-57
2023/12/20 10:11:09;;;;;;;;;;;;;;;;;;5027559;28;19960;-57
2023/12/20 10:13:35;;;;;;;;;;;;;;;;;;5030382;28;19957;-56
2023/12/20 10:16:01;;;;;;;;;;;;;;;;;;5037368;28;19952;-57
2023/12/20 10:18:26;;;;;;;;;;;;;;;;;;5026055;28;19949;-57
2023/12/20 10:20:52;;;;;;;;;;;;;;;;;;5027892;28;19917;-56
2023/12/20 10:23:18;;;;;;;;;;;;;;;;;;5028257;28;19917;-57
2023/12/20 10:25:44;;;;;;;;;;;;;;;;;;5026787;28;19963;-57
2023/12/20 10:28:10;;;;;;;;;;;;;;;;;;5029745;28;19916;-57
2023/12/20 10:30:36;;;;;;;;;;;;;;;;;;5029310;28;20379;-55
2023/12/20 10:33:02;;;;;;;;;;;;;;;;;;5029221;28;20330;-55
2023/12/20 10:35:28;;;;;;;;;;;;;;;;;;5036024;28;19952;-55
2023/12/20 10:37:54;;;;;;;;;;;;;;;;;;5029815;28;19964;-55
2023/12/20 10:40:20;;;;;;;;;;;;;;;;;;5030803;28;19952;-55
2023/12/20 10:42:47;;;;;;;;;;;;;;;;;;5026722;28;19960;-55
2023/12/20 10:45:13;;;;;;;;;;;;;;;;;;5024647;28;19917;-55
2023/12/20 10:47:39;;;;;;;;;;;;;;;;;;5034877;28;19916;-55
2023/12/20 10:50:05;;;;;;;;;;;;;;;;;;5038469;28;19916;-56
2023/12/20 10:52:31;;;;;;;;;;;;;;;;;;5026551;28;20415;-56
2023/12/20 10:54:57;;;;;;;;;;;;;;;;;;5033828;28;20553;-55
2023/12/20 10:57:23;;;;;;;;;;;;;;;;;;5031204;28;20372;-56
2023/12/20 10:59:49;;;;;;;;;;;;;;;;;;5032490;28;19921;-56
2023/12/20 11:02:15;;;;;;;;;;;;;;;;;;5032724;28;20020;-56
2023/12/20 11:04:41;;;;;;;;;;;;;;;;;;5030513;28;19917;-55
2023/12/20 11:07:07;;;;;;;;;;;;;;;;;;5027757;28;20297;-55
2023/12/20 11:09:33;;;;;;;;;;;;;;;;;;5030729;28;19916;-56
2023/12/20 11:11:59;;;;;;;;;;;;;;;;;;5028134;28;20384;-57
2023/12/20 11:14:26;;;;;;;;;;;;;;;;;;5022582;28;20415;-55
2023/12/20 11:16:52;;;;;;;;;;;;;;;;;;5027379;28;20556;-55
2023/12/20 11:19:18;;;;;;;;;;;;;;;;;;5031158;28;19913;-55
2023/12/20 11:21:44;;;;;;;;;;;;;;;;;;5027750;28;19924;-55
2023/12/20 11:24:10;;;;;;;;;;;;;;;;;;5029823;28;20003;-56
2023/12/20 11:26:36;;;;;;;;;;;;;;;;;;5026478;28;20420;-56
2023/12/20 11:29:02;;;;;;;;;;;;;;;;;;5034776;28;19948;-56
2023/12/20 11:31:28;;;;;;;;;;;;;;;;;;5031018;28;20377;-56
2023/12/20 11:33:56;;;;;;;;;;;;;;;;;;5029345;28;20372;-56
2023/12/20 11:36:24;;;;;;;;;;;;;;;;;;5031788;28;19920;-56
2023/12/20 11:38:51;;;;;;;;;;;;;;;;;;5028557;28;19940;-56
2023/12/20 11:41:17;;;;;;;;;;;;;;;;;;5029876;28;20387;-55
2023/12/20 11:43:43;;;;;;;;;;;;;;;;;;5023259;28;19958;-56
2023/12/20 11:46:09;;;;;;;;;;;;;;;;;;5026644;28;19967;-56
2023/12/20 11:48:35;;;;;;;;;;;;;;;;;;5031062;28;19978;-56
2023/12/20 11:51:02;;;;;;;;;;;;;;;;;;5027244;28;19995;-56
2023/12/20 11:53:28;;;;;;;;;;;;;;;;;;5028531;28;19917;-57
2023/12/20 11:55:54;;;;;;;;;;;;;;;;;;5032470;28;20003;-57
2023/12/20 11:58:20;;;;;;;;;;;;;;;;;;5028948;28;20013;-57
2023/12/20 12:00:46;;;;;;;;;;;;;;;;;;5028493;28;19953;-57
2023/12/20 12:03:12;;;;;;;;;;;;;;;;;;5031315;28;19952;-57
2023/12/20 12:05:38;;;;;;;;;;;;;;;;;;5032370;28;20372;-58
2023/12/20 12:08:05;;;;;;;;;;;;;;;;;;5031148;28;20344;-57
2023/12/20 12:10:31;;;;;;;;;;;;;;;;;;5029290;28;19921;-57
2023/12/20 12:12:57;;;;;;;;;;;;;;;;;;5033732;28;20363;-57
2023/12/20 12:15:23;;;;;;;;;;;;;;;;;;5032116;28;20034;-57
2023/12/20 12:17:49;;;;;;;;;;;;;;;;;;5034171;28;19949;-57
2023/12/20 12:20:15;;;;;;;;;;;;;;;;;;5026149;28;19971;-58
2023/12/20 12:22:41;;;;;;;;;;;;;;;;;;5025681;28;19963;-57
2023/12/20 12:25:07;;;;;;;;;;;;;;;;;;5036036;28;20553;-57
2023/12/20 12:27:33;;;;;;;;;;;;;;;;;;5028987;28;20005;-57
2023/12/20 12:29:59;;;;;;;;;;;;;;;;;;5023492;28;19944;-57
2023/12/20 12:32:25;;;;;;;;;;;;;;;;;;5030678;28;19964;-56
2023/12/20 12:34:51;;;;;;;;;;;;;;;;;;5039024;28;19959;-57
2023/12/20 12:37:16;;;;;;;;;;;;;;;;;;5036576;28;19971;-58
2023/12/20 12:39:42;;;;;;;;;;;;;;;;;;5046265;28;19994;-57
2023/12/20 12:42:08;;;;;;;;;;;;;;;;;;5031936;28;20277;-58
2023/12/20 12:44:34;;;;;;;;;;;;;;;;;;5028674;28;19940;-58
2023/12/20 12:47:00;;;;;;;;;;;;;;;;;;5025050;28;19952;-58
2023/12/20 12:49:26;;;;;;;;;;;;;;;;;;5030593;28;19924;-57
2023/12/20 12:51:54;;;;;;;;;;;;;;;;;;5034389;28;19952;-58
2023/12/20 12:54:20;;;;;;;;;;;;;;;;;;5032802;28;19920;-57
2023/12/20 12:56:47;;;;;;;;;;;;;;;;;;5040842;28;19917;-58
2023/12/20 12:59:13;;;;;;;;;;;;;;;;;;5048250;28;19921;-57
2023/12/20 13:01:39;;;;;;;;;;;;;;;;;;5029712;28;20006;-57
2023/12/20 13:04:10;;;;;;;;;;;;;;;;;;5032139;28;20099;-57
2023/12/20 13:06:36;;;;;;;;;;;;;;;;;;5021455;28;19909;-57
2023/12/20 13:09:02;;;;;;;;;;;;;;;;;;5027039;28;19975;-57
2023/12/20 13:11:28;;;;;;;;;;;;;;;;;;5024590;28;19921;-57
2023/12/20 13:13:53;;;;;;;;;;;;;;;;;;5029325;28;19921;-57
2023/12/20 13:16:19;;;;;;;;;;;;;;;;;;5029954;28;19916;-57
2023/12/20 13:18:45;;;;;;;;;;;;;;;;;;5029609;28;20384;-57
2023/12/20 13:21:11;;;;;;;;;;;;;;;;;;5026140;28;19924;-58
2023/12/20 13:23:38;;;;;;;;;;;;;;;;;;5024277;28;19917;-56
2023/12/20 13:26:03;;;;;;;;;;;;;;;;;;5026931;28;19921;-56
2023/12/20 13:28:29;;;;;;;;;;;;;;;;;;5028182;28;19976;-56
2023/12/20 13:30:55;;;;;;;;;;;;;;;;;;5024664;28;19971;-56
2023/12/20 13:33:21;;;;;;;;;;;;;;;;;;5025874;28;19960;-56
2023/12/20 13:35:47;;;;;;;;;;;;;;;;;;5023199;28;19957;-56
2023/12/20 13:38:14;;;;;;;;;;;;;;;;;;5023660;28;19979;-57
2023/12/20 13:40:39;;;;;;;;;;;;;;;;;;5029349;28;20004;-57
2023/12/20 13:43:05;;;;;;;;;;;;;;;;;;5028008;28;20347;-51
2023/12/20 13:45:31;;;;;;;;;;;;;;;;;;5027561;28;20389;-55
2023/12/20 13:47:58;;;;;;;;;;;;;;;;;;5026349;28;19917;-55
2023/12/20 13:50:24;;;;;;;;;;;;;;;;;;5029251;28;19924;-56
2023/12/20 13:52:50;;;;;;;;;;;;;;;;;;5023096;28;19917;-56
2023/12/20 13:55:16;;;;;;;;;;;;;;;;;;5026025;28;20004;-57
2023/12/20 13:57:42;;;;;;;;;;;;;;;;;;5028007;28;19980;-54
2023/12/20 14:00:14;;;;;;;;;;;;;;;;;;5024101;28;20071;-56
2023/12/20 14:02:40;;;;;;;;;;;;;;;;;;5025747;28;20257;-55
2023/12/20 14:05:06;;;;;;;;;;;;;;;;;;5027052;28;19919;-56
2023/12/20 14:07:32;;;;;;;;;;;;;;;;;;5030508;28;20024;-58
2023/12/20 14:09:59;;;;;;;;;;;;;;;;;;5020828;28;19944;-57
2023/12/20 14:12:25;;;;;;;;;;;;;;;;;;5028385;28;20003;-58
2023/12/20 14:14:51;;;;;;;;;;;;;;;;;;5024048;28;19949;-58
2023/12/20 14:17:17;;;;;;;;;;;;;;;;;;5026124;28;19972;-58
2023/12/20 14:19:42;;;;;;;;;;;;;;;;;;5028450;28;19963;-55
2023/12/20 14:22:08;;;;;;;;;;;;;;;;;;5027810;28;19955;-57
2023/12/20 14:24:34;;;;;;;;;;;;;;;;;;5023710;28;20023;-55
2023/12/20 14:27:00;;;;;;;;;;;;;;;;;;5023435;28;19921;-56
2023/12/20 14:29:27;;;;;;;;;;;;;;;;;;5021010;28;19956;-55
2023/12/20 14:31:53;;;;;;;;;;;;;;;;;;5027236;28;20107;-57
2023/12/20 14:34:19;;;;;;;;;;;;;;;;;;5025582;28;20333;-55
2023/12/20 14:36:45;;;;;;;;;;;;;;;;;;5027364;28;19959;-58
2023/12/20 14:39:12;;;;;;;;;;;;;;;;;;5025845;28;19957;-55
2023/12/20 14:41:40;;;;;;;;;;;;;;;;;;5029630;28;20360;-55
2023/12/20 14:44:06;;;;;;;;;;;;;;;;;;5028130;28;19913;-56
2023/12/20 14:46:32;;;;;;;;;;;;;;;;;;5025862;28;19921;-55
2023/12/20 14:48:58;;;;;;;;;;;;;;;;;;5027943;28;19971;-54
2023/12/20 14:51:24;;;;;;;;;;;;;;;;;;5029029;28;20344;-56
2023/12/20 14:53:50;;;;;;;;;;;;;;;;;;5029199;28;20380;-55
2023/12/20 14:56:16;;;;;;;;;;;;;;;;;;5028825;28;19979;-58
2023/12/20 14:58:42;;;;;;;;;;;;;;;;;;5026784;28;19964;-58
2023/12/20 15:01:08;;;;;;;;;;;;;;;;;;5028232;28;19956;-56
2023/12/20 15:03:34;;;;;;;;;;;;;;;;;;5027527;28;19955;-56
2023/12/20 15:06:00;;;;;;;;;;;;;;;;;;5029063;28;19975;-56
2023/12/20 15:08:26;;;;;;;;;;;;;;;;;;5023282;28;19952;-56
2023/12/20 15:10:52;;;;;;;;;;;;;;;;;;5027094;28;19955;-55
2023/12/20 15:13:20;;;;;;;;;;;;;;;;;;5026061;28;19953;-57
2023/12/20 15:15:47;;;;;;;;;;;;;;;;;;5021772;28;20431;-57
2023/12/20 15:18:13;;;;;;;;;;;;;;;;;;5022093;28;21287;-56
2023/12/20 15:20:39;;;;;;;;;;;;;;;;;;5026855;28;21751;-53
2023/12/20 15:23:06;;;;;;;;;;;;;;;;;;5020950;28;19972;-53
2023/12/20 15:25:32;;;;;;;;;;;;;;;;;;5026643;28;19917;-53
2023/12/20 15:27:58;;;;;;;;;;;;;;;;;;5026039;28;19975;-53
2023/12/20 15:30:24;;;;;;;;;;;;;;;;;;5022874;28;19949;-53
2023/12/20 15:32:50;;;;;;;;;;;;;;;;;;5026250;28;19925;-55
2023/12/20 15:35:16;;;;;;;;;;;;;;;;;;5025321;28;19921;-53
2023/12/20 15:37:42;;;;;;;;;;;;;;;;;;5028142;28;19969;-54
2023/12/20 15:40:10;;;;;;;;;;;;;;;;;;5027000;28;19975;-53
2023/12/20 15:42:36;;;;;;;;;;;;;;;;;;5028464;28;20427;-54
2023/12/20 15:45:02;;;;;;;;;;;;;;;;;;5028984;28;19913;-53
2023/12/20 15:47:28;;;;;;;;;;;;;;;;;;5027276;28;20008;-52
2023/12/20 15:49:54;;;;;;;;;;;;;;;;;;5030405;28;20011;-53
2023/12/20 15:52:20;;;;;;;;;;;;;;;;;;5031041;28;19959;-53
2023/12/20 15:54:47;;;;;;;;;;;;;;;;;;5033167;28;19963;-53
2023/12/20 15:57:15;;;;;;;;;;;;;;;;;;5032321;28;19960;-52
2023/12/20 15:59:41;;;;;;;;;;;;;;;;;;5029858;28;19986;-53
2023/12/20 16:02:07;;;;;;;;;;;;;;;;;;5026506;28;19917;-53
2023/12/20 16:04:33;;;;;;;;;;;;;;;;;;5026491;28;19943;-53
2023/12/20 16:06:59;;;;;;;;;;;;;;;;;;5029993;28;19944;-53
2023/12/20 16:09:25;;;;;;;;;;;;;;;;;;5031529;28;20010;-53
2023/12/20 16:11:51;;;;;;;;;;;;;;;;;;5031924;28;19921;-52
2023/12/20 16:14:19;;;;;;;;;;;;;;;;;;5030034;28;20376;-52
2023/12/20 16:16:45;;;;;;;;;;;;;;;;;;5028204;28;19927;-53
2023/12/20 16:19:11;;;;;;;;;;;;;;;;;;5030625;28;20428;-55
2023/12/20 16:21:37;;;;;;;;;;;;;;;;;;5026524;28;19940;-52
2023/12/20 16:24:03;;;;;;;;;;;;;;;;;;5030820;28;20396;-55
2023/12/20 16:26:29;;;;;;;;;;;;;;;;;;5031347;28;20413;-54
2023/12/20 16:28:55;;;;;;;;;;;;;;;;;;5026036;28;19964;-58
2023/12/20 16:31:21;;;;;;;;;;;;;;;;;;5027651;28;19957;-55
2023/12/20 16:33:46;;;;;;;;;;;;;;;;;;5026520;28;19983;-54
2023/12/20 16:36:12;;;;;;;;;;;;;;;;;;5028798;28;19960;-53
2023/12/20 16:38:39;;;;;;;;;;;;;;;;;;5028993;28;19953;-54